Pagrindinis puslapis
METAR-TAF:

METAR-TAF

Oro uostai :

Kembridžas, Anglija

platuma: 52-12N, ilguma: 000-11E, Aukštis: 15 m

Dabartinis oras

Ataskaita buvo paskelbta 19 minutes, ne 13:20 UTC
Vėjas 12 kt iš Vakarų/Pietvakarių
Temperatūra 6°C
Drėgmė 87%
Slėgis 1019 hPa
Matomumas: 9000 m
Mažai debesys ne aukštis 2200 ft
lietus

METAR: EGSC 191320Z 24012KT 9000 -RA FEW022 06/04 Q1019

Laikas: 13:39 (13:39 UTC)

Prognozė

Ataskaita buvo paskelbta 38 minutes, ne 13:01 UTC
Prognozė galioja nuo 19 metu 13 UTC su 19 metu 19 UTC
Vėjas 14 kt iš Pietų/Pietvakarių
Matomumas 10 km arba daugiau
Išsisklaidę debesys ne aukštis 2000 ft
Laikinai
nuo 19 metu 13 UTC su 19 metu 19 UTC
Vėjas 18 kt iš Pietvakarių su gūsio iki 28 kt
Matomumas: 8000 m
Su prošvaistėmis ne aukštis 1200 ft
lietus
Tikimybė 30% :
Laikinai
nuo 19 metu 13 UTC su 19 metu 17 UTC
Matomumas: 4000 m
Su prošvaistėmis ne aukštis 800 ft
lietus

TAF: EGSC 191301Z 1913/1919 21014KT 9999 SCT020 TEMPO 1913/1919 23018G28KT 8000 -RA BKN012 PROB30 TEMPO 1913/1917 4000 RA BKN008

Orai ataskaitas ir orų prognozės (METAR, TAF).

turimą stotys yra geltonos ir raudonos taškus žemėlapyje.

Perkelti pele per norėdami pamatyti stoties vardą.

Tada spustelėkite, norėdami matyti oro stebėjimo ir prognozės.

Norėdami pakeisti žemėlapį: spustelėkite ant žalios mygtukų su juodo kryžiaus žemyn,; žalią mygtuką su brūkšneliu, jei norite nutolinti; arba žalių rodyklių gretimoms žemėlapius.


METAR-TAF: